createdAt,value
2022-08-12T00:00:17.459Z,1003.11
2022-08-12T00:01:16.044Z,1003.12
2022-08-12T00:02:16.038Z,1003.14
2022-08-12T00:03:17.658Z,1003.11
2022-08-12T00:04:16.257Z,1003.10
2022-08-12T00:05:15.753Z,1003.08
2022-08-12T00:06:13.620Z,1003.06
2022-08-12T00:07:13.442Z,1003.05
2022-08-12T00:08:13.236Z,1003.05
2022-08-12T00:09:15.021Z,1003.05
2022-08-12T00:10:15.547Z,1003.04
2022-08-12T00:11:15.298Z,1003.03
2022-08-12T00:12:17.983Z,1003.05
2022-08-12T00:13:12.926Z,1003.04
2022-08-12T00:14:15.745Z,1003.03
2022-08-12T00:15:15.201Z,1003.01
2022-08-12T00:16:16.556Z,1003.00
2022-08-12T00:17:18.092Z,1002.99
2022-08-12T00:18:17.824Z,1002.99
2022-08-12T00:19:15.428Z,1003.01
2022-08-12T00:20:16.503Z,1002.98
2022-08-12T00:21:13.707Z,1003.01
2022-08-12T00:22:13.577Z,1003.03
2022-08-12T00:23:16.594Z,1003.02
2022-08-12T00:24:15.259Z,1003.01
2022-08-12T00:25:15.035Z,1003.02
2022-08-12T00:26:23.416Z,1003.07
2022-08-12T00:27:17.891Z,1003.07
2022-08-12T00:28:15.686Z,1003.05
2022-08-12T00:29:16.625Z,1003.03
2022-08-12T00:30:16.799Z,1003.05
2022-08-12T00:31:19.559Z,1003.06
2022-08-12T00:32:16.706Z,1003.05
2022-08-12T00:33:15.569Z,1003.03
2022-08-12T00:34:18.029Z,1003.04
2022-08-12T00:35:15.192Z,1003.06
2022-08-12T00:36:35.232Z,1003.05
2022-08-12T00:37:14.140Z,1003.01
2022-08-12T00:38:13.302Z,1003.00
2022-08-12T00:39:16.369Z,1003.00
2022-08-12T00:40:17.093Z,1003.00
2022-08-12T00:41:15.779Z,1003.00
2022-08-12T00:42:16.988Z,1003.02
2022-08-12T00:43:15.788Z,1003.01
2022-08-12T00:44:15.484Z,1003.02
2022-08-12T00:45:13.365Z,1003.02
2022-08-12T00:46:15.357Z,1002.98
2022-08-12T00:47:24.176Z,1002.97
2022-08-12T00:48:17.718Z,1002.97
2022-08-12T00:49:16.781Z,1002.99
2022-08-12T00:50:13.721Z,1002.99
2022-08-12T00:51:15.912Z,1003.02
2022-08-12T00:52:13.772Z,1003.02
2022-08-12T00:53:13.768Z,1003.01
2022-08-12T00:54:13.661Z,1002.97
2022-08-12T00:55:18.198Z,1003.01
2022-08-12T00:56:13.019Z,1002.99
2022-08-12T00:57:13.024Z,1003.01
2022-08-12T00:58:12.875Z,1003.04
2022-08-12T00:59:13.631Z,1003.01
2022-08-12T01:00:15.281Z,1003.01
2022-08-12T01:01:13.214Z,1003.05
2022-08-12T01:02:16.405Z,1003.01
2022-08-12T01:03:15.088Z,1003.01
2022-08-12T01:04:13.348Z,1003.03
2022-08-12T01:05:16.259Z,1003.03
2022-08-12T01:06:17.629Z,1003.06
2022-08-12T01:07:15.059Z,1003.03
2022-08-12T01:08:17.331Z,1003.04
2022-08-12T01:09:16.219Z,1003.02
2022-08-12T01:10:17.702Z,1003.03
2022-08-12T01:11:15.845Z,1003.02
2022-08-12T01:12:15.876Z,1003.01
2022-08-12T01:13:20.007Z,1003.02
2022-08-12T01:14:15.829Z,1003.00
2022-08-12T01:15:13.989Z,1003.01
2022-08-12T01:16:16.977Z,1003.01
2022-08-12T01:17:18.705Z,1003.02
2022-08-12T01:18:15.360Z,1003.00
2022-08-12T01:19:15.198Z,1003.01
2022-08-12T01:20:15.615Z,1003.00
2022-08-12T01:21:13.582Z,1003.07
2022-08-12T01:22:15.523Z,1003.04
2022-08-12T01:23:13.475Z,1003.03
2022-08-12T01:24:29.465Z,1003.05
2022-08-12T01:25:13.810Z,1003.06
2022-08-12T01:26:15.615Z,1003.05
2022-08-12T01:27:15.394Z,1003.06
2022-08-12T01:28:13.277Z,1003.07
2022-08-12T01:29:14.258Z,1003.07
2022-08-12T01:30:15.220Z,1003.06
2022-08-12T01:31:16.310Z,1003.06
2022-08-12T01:32:15.109Z,1003.04
2022-08-12T01:33:15.940Z,1003.04
2022-08-12T01:34:28.352Z,1003.03
2022-08-12T01:35:13.182Z,1003.02
2022-08-12T01:36:13.082Z,1003.03
2022-08-12T01:37:16.241Z,1003.02
2022-08-12T01:38:15.123Z,1003.03
2022-08-12T01:39:17.043Z,1003.00
2022-08-12T01:40:34.807Z,1003.00
2022-08-12T01:41:13.992Z,1002.98
2022-08-12T01:42:14.035Z,1002.96
2022-08-12T01:43:12.860Z,1002.98
2022-08-12T01:44:14.142Z,1002.94
2022-08-12T01:45:13.396Z,1002.97
2022-08-12T01:46:16.981Z,1002.95
2022-08-12T01:47:12.957Z,1002.97
2022-08-12T01:48:13.000Z,1002.94
2022-08-12T01:49:16.221Z,1002.97
2022-08-12T01:50:13.381Z,1002.93
2022-08-12T01:51:13.293Z,1002.94
2022-08-12T01:52:20.996Z,1002.95
2022-08-12T01:53:13.584Z,1002.94
2022-08-12T01:54:13.522Z,1002.93
2022-08-12T01:55:14.279Z,1002.91
2022-08-12T01:56:13.331Z,1002.92
2022-08-12T01:57:14.610Z,1002.93
2022-08-12T01:58:13.608Z,1002.92
2022-08-12T01:59:16.593Z,1002.95
2022-08-12T02:00:15.847Z,1002.90
2022-08-12T02:01:14.222Z,1002.90
2022-08-12T02:02:14.590Z,1002.92
2022-08-12T02:03:13.627Z,1002.92
2022-08-12T02:04:13.945Z,1002.91
2022-08-12T02:05:14.745Z,1002.92
2022-08-12T02:06:13.996Z,1002.92
2022-08-12T02:07:16.134Z,1002.94
2022-08-12T02:08:15.491Z,1002.92
2022-08-12T02:09:13.409Z,1002.92
2022-08-12T02:10:51.058Z,1002.93
2022-08-12T02:11:13.011Z,1002.93
2022-08-12T02:12:17.485Z,1002.92
2022-08-12T02:13:13.805Z,1002.93
2022-08-12T02:14:12.905Z,1002.94
2022-08-12T02:15:18.507Z,1002.93
2022-08-12T02:16:13.429Z,1002.95
2022-08-12T02:17:13.293Z,1002.95
2022-08-12T02:18:13.190Z,1002.94
2022-08-12T02:19:22.349Z,1002.95
2022-08-12T02:20:17.013Z,1002.97
2022-08-12T02:21:16.321Z,1002.97
2022-08-12T02:22:13.310Z,1002.97
2022-08-12T02:23:13.422Z,1002.97
2022-08-12T02:24:14.940Z,1002.98
2022-08-12T02:25:14.627Z,1002.98
2022-08-12T02:26:13.740Z,1002.99
2022-08-12T02:27:15.558Z,1002.98
2022-08-12T02:28:17.355Z,1003.00
2022-08-12T02:29:15.197Z,1002.96
2022-08-12T02:30:12.968Z,1003.00
2022-08-12T02:31:12.937Z,1002.99
2022-08-12T02:32:14.552Z,1002.99
2022-08-12T02:33:13.545Z,1003.00
2022-08-12T02:34:14.983Z,1003.01
2022-08-12T02:35:12.874Z,1003.04
2022-08-12T02:36:14.203Z,1003.03
2022-08-12T02:37:13.129Z,1003.06
2022-08-12T02:38:13.056Z,1003.02
2022-08-12T02:39:13.194Z,1003.02
2022-08-12T02:40:13.173Z,1003.07
2022-08-12T02:41:13.035Z,1003.04
2022-08-12T02:42:15.461Z,1003.08
2022-08-12T02:43:15.062Z,1003.05
2022-08-12T02:44:13.045Z,1003.07
2022-08-12T02:45:14.486Z,1003.07
2022-08-12T02:46:14.922Z,1003.09
2022-08-12T02:47:58.814Z,1003.08
2022-08-12T02:48:14.012Z,1003.09
2022-08-12T02:49:13.045Z,1003.10
2022-08-12T02:50:12.985Z,1003.10
2022-08-12T02:51:13.036Z,1003.09
2022-08-12T02:52:15.574Z,1003.07
2022-08-12T02:53:15.277Z,1003.06
2022-08-12T02:54:14.651Z,1003.08
2022-08-12T02:55:13.587Z,1003.10
2022-08-12T02:56:13.967Z,1003.07
2022-08-12T02:57:15.938Z,1003.05
2022-08-12T02:58:14.874Z,1003.10
2022-08-12T02:59:12.818Z,1003.06
2022-08-12T03:00:14.079Z,1003.06
2022-08-12T03:01:13.279Z,1003.04
2022-08-12T03:02:17.202Z,1003.04
2022-08-12T03:03:13.257Z,1003.04
2022-08-12T03:04:20.137Z,1003.07
2022-08-12T03:05:12.987Z,1003.09
2022-08-12T03:06:18.554Z,1003.07
2022-08-12T03:07:13.625Z,1003.06
2022-08-12T03:08:17.486Z,1003.07
2022-08-12T03:09:14.613Z,1003.06
2022-08-12T03:10:17.839Z,1003.06
2022-08-12T03:11:14.401Z,1003.03
2022-08-12T03:12:20.070Z,1003.00
2022-08-12T03:13:13.189Z,1003.02
2022-08-12T03:14:13.074Z,1003.03
2022-08-12T03:15:13.377Z,1003.02
2022-08-12T03:16:15.217Z,1003.03
2022-08-12T03:17:13.707Z,1003.02
2022-08-12T03:18:26.119Z,1003.00
2022-08-12T03:19:13.341Z,1002.99
2022-08-12T03:20:13.378Z,1002.99
2022-08-12T03:21:14.650Z,1002.97
2022-08-12T03:22:14.950Z,1002.96
2022-08-12T03:23:17.574Z,1002.97
2022-08-12T03:24:14.935Z,1002.96
2022-08-12T03:25:13.938Z,1002.99
2022-08-12T03:26:14.470Z,1002.98
2022-08-12T03:27:13.725Z,1002.98
2022-08-12T03:28:23.512Z,1003.02
2022-08-12T03:29:14.510Z,1002.98
2022-08-12T03:30:14.021Z,1002.97
2022-08-12T03:31:13.259Z,1002.96
2022-08-12T03:32:35.029Z,1002.97
2022-08-12T03:33:14.655Z,1002.97
2022-08-12T03:34:13.549Z,1002.96
2022-08-12T03:35:39.986Z,1002.97
2022-08-12T03:36:13.832Z,1003.01
2022-08-12T03:37:14.540Z,1002.98
2022-08-12T03:38:13.483Z,1003.00
2022-08-12T03:39:14.855Z,1003.01
2022-08-12T03:40:14.413Z,1003.00
2022-08-12T03:41:13.335Z,1002.99
2022-08-12T03:42:13.333Z,1002.99
2022-08-12T03:43:13.470Z,1002.98
2022-08-12T03:44:13.293Z,1003.00
2022-08-12T03:45:14.738Z,1002.98
2022-08-12T03:46:15.232Z,1003.00
2022-08-12T03:47:14.378Z,1003.03
2022-08-12T03:48:18.990Z,1003.03
2022-08-12T03:49:18.628Z,1003.03
2022-08-12T03:50:13.642Z,1003.01
2022-08-12T03:51:13.650Z,1003.02
2022-08-12T03:52:13.701Z,1003.02
2022-08-12T03:53:13.606Z,1003.02
2022-08-12T03:54:13.514Z,1003.01
2022-08-12T03:55:13.753Z,1003.01
2022-08-12T03:56:13.828Z,1003.04
2022-08-12T03:57:14.688Z,1003.05
2022-08-12T03:58:13.771Z,1003.05
2022-08-12T03:59:13.939Z,1003.08
2022-08-12T04:00:23.733Z,1003.07
2022-08-12T04:01:17.267Z,1003.07
2022-08-12T04:02:13.232Z,1003.08
2022-08-12T04:03:13.205Z,1003.12
2022-08-12T04:04:13.116Z,1003.11
2022-08-12T04:05:14.043Z,1003.10
2022-08-12T04:06:14.411Z,1003.06
2022-08-12T04:07:14.079Z,1003.09
2022-08-12T04:08:15.038Z,1003.08
2022-08-12T04:09:16.093Z,1003.13
2022-08-12T04:10:13.546Z,1003.11
2022-08-12T04:11:15.116Z,1003.08
2022-08-12T04:12:12.998Z,1003.12
2022-08-12T04:13:13.081Z,1003.13
2022-08-12T04:14:13.021Z,1003.11
2022-08-12T04:15:13.784Z,1003.10
2022-08-12T04:16:13.729Z,1003.11
2022-08-12T04:17:14.084Z,1003.10
2022-08-12T04:18:13.170Z,1003.08
2022-08-12T04:19:13.902Z,1003.07
2022-08-12T04:20:13.359Z,1003.10
2022-08-12T04:21:13.905Z,1003.12
2022-08-12T04:22:15.167Z,1003.11
2022-08-12T04:23:16.781Z,1003.08
2022-08-12T04:24:13.156Z,1003.09
2022-08-12T04:25:13.206Z,1003.06
2022-08-12T04:26:18.176Z,1003.06
2022-08-12T04:27:14.213Z,1003.06
2022-08-12T04:28:14.010Z,1003.11
2022-08-12T04:29:13.303Z,1003.09
2022-08-12T04:30:31.511Z,1003.06
2022-08-12T04:31:13.033Z,1003.08
2022-08-12T04:32:13.261Z,1003.05
2022-08-12T04:33:14.925Z,1003.07
2022-08-12T04:34:12.840Z,1003.06
2022-08-12T04:35:13.993Z,1003.09
2022-08-12T04:36:15.430Z,1003.07
2022-08-12T04:37:16.790Z,1003.11
2022-08-12T04:38:16.876Z,1003.13
2022-08-12T04:39:14.119Z,1003.08
2022-08-12T04:40:14.426Z,1003.10
2022-08-12T04:41:14.668Z,1003.10
2022-08-12T04:42:13.763Z,1003.07
2022-08-12T04:43:59.747Z,1003.08
2022-08-12T04:44:16.054Z,1003.10
2022-08-12T04:45:13.161Z,1003.09
2022-08-12T04:46:13.784Z,1003.07
2022-08-12T04:47:15.311Z,1003.07
2022-08-12T04:48:16.580Z,1003.09
2022-08-12T04:49:16.185Z,1003.06
2022-08-12T04:50:27.189Z,1003.06
2022-08-12T04:51:15.089Z,1003.05
2022-08-12T04:52:14.915Z,1003.07
2022-08-12T04:53:12.793Z,1003.04
2022-08-12T04:54:13.716Z,1003.05
2022-08-12T04:55:13.357Z,1003.02
2022-08-12T04:56:13.522Z,1003.06
2022-08-12T04:57:13.598Z,1003.07
2022-08-12T04:58:15.146Z,1003.09
2022-08-12T04:59:14.826Z,1003.08
2022-08-12T05:00:13.896Z,1003.10
2022-08-12T05:01:13.088Z,1003.10
2022-08-12T05:02:17.126Z,1003.09
2022-08-12T05:03:13.151Z,1003.09
2022-08-12T05:04:14.192Z,1003.10
2022-08-12T05:05:13.035Z,1003.08
2022-08-12T05:06:26.333Z,1003.05
2022-08-12T05:07:14.601Z,1003.08
2022-08-12T05:08:13.496Z,1003.09
2022-08-12T05:09:13.785Z,1003.10
2022-08-12T05:10:33.492Z,1003.08
2022-08-12T05:11:20.323Z,1003.04
2022-08-12T05:12:15.267Z,1003.06
2022-08-12T05:13:14.940Z,1003.07
2022-08-12T05:14:12.924Z,1003.07
2022-08-12T05:15:19.021Z,1003.07
2022-08-12T05:16:13.536Z,1003.01
2022-08-12T05:17:16.462Z,1003.03
2022-08-12T05:18:19.166Z,1003.06
2022-08-12T05:19:18.673Z,1003.06
2022-08-12T05:20:13.604Z,1003.05
2022-08-12T05:21:13.743Z,1003.07
2022-08-12T05:22:13.583Z,1003.03
2022-08-12T05:23:14.997Z,1003.07
2022-08-12T05:24:13.372Z,1003.02
2022-08-12T05:25:13.278Z,1003.04
2022-08-12T05:26:15.248Z,1003.01
2022-08-12T05:27:14.940Z,1003.00
2022-08-12T05:28:14.714Z,1002.96
2022-08-12T05:30:07.470Z,1002.99
2022-08-12T05:30:15.004Z,1002.98
2022-08-12T05:31:14.829Z,1003.01
2022-08-12T05:32:16.448Z,1003.03
2022-08-12T05:33:13.316Z,1003.03
2022-08-12T05:34:13.200Z,1003.01
2022-08-12T05:35:14.458Z,1003.02
2022-08-12T05:36:13.853Z,1003.04
2022-08-12T05:37:16.241Z,1003.05
2022-08-12T05:38:14.421Z,1003.05
2022-08-12T05:39:15.000Z,1003.07
2022-08-12T05:40:13.060Z,1003.08
2022-08-12T05:41:14.508Z,1003.10
2022-08-12T05:42:16.008Z,1003.09
2022-08-12T05:43:13.013Z,1003.09
2022-08-12T05:44:13.194Z,1003.12
2022-08-12T05:45:14.811Z,1003.12
2022-08-12T05:46:15.928Z,1003.10
2022-08-12T05:47:14.345Z,1003.13
2022-08-12T05:48:13.191Z,1003.15
2022-08-12T05:49:15.907Z,1003.16
2022-08-12T05:50:13.496Z,1003.15
2022-08-12T05:51:13.641Z,1003.15
2022-08-12T05:52:16.520Z,1003.15
2022-08-12T05:53:15.089Z,1003.16
2022-08-12T05:54:12.968Z,1003.17
2022-08-12T05:55:15.961Z,1003.19
2022-08-12T05:56:16.076Z,1003.21
2022-08-12T05:57:14.730Z,1003.20
2022-08-12T05:58:16.831Z,1003.21
2022-08-12T05:59:13.214Z,1003.22
2022-08-12T06:00:15.165Z,1003.23
2022-08-12T06:02:11.927Z,1003.21
2022-08-12T06:02:16.015Z,1003.20
2022-08-12T06:03:14.281Z,1003.24
2022-08-12T06:04:17.918Z,1003.27
2022-08-12T06:05:16.630Z,1003.27
2022-08-12T06:06:14.792Z,1003.28
2022-08-12T06:07:59.144Z,1003.28
2022-08-12T06:08:16.153Z,1003.29
2022-08-12T06:09:14.703Z,1003.29
2022-08-12T06:10:14.145Z,1003.27
2022-08-12T06:11:15.586Z,1003.27
2022-08-12T06:12:13.595Z,1003.21
2022-08-12T06:13:13.623Z,1003.22
2022-08-12T06:14:14.754Z,1003.22
2022-08-12T06:15:16.956Z,1003.23
2022-08-12T06:16:13.150Z,1003.21
2022-08-12T06:17:18.408Z,1003.21
2022-08-12T06:18:18.876Z,1003.20
2022-08-12T06:19:13.800Z,1003.23
2022-08-12T06:20:27.501Z,1003.21
2022-08-12T06:21:13.737Z,1003.21
2022-08-12T06:22:13.613Z,1003.22
2022-08-12T06:23:13.707Z,1003.23
2022-08-12T06:24:13.794Z,1003.25
2022-08-12T06:25:18.501Z,1003.24
2022-08-12T06:26:13.538Z,1003.23
2022-08-12T06:27:13.714Z,1003.23
2022-08-12T06:28:13.803Z,1003.24
2022-08-12T06:29:15.667Z,1003.23
2022-08-12T06:30:27.739Z,1003.23
2022-08-12T06:31:26.826Z,1003.29
2022-08-12T06:32:16.255Z,1003.31
2022-08-12T06:33:22.572Z,1003.31
2022-08-12T06:35:24.190Z,1003.31
2022-08-12T06:35:25.566Z,1003.31
2022-08-12T06:36:13.108Z,1003.33
2022-08-12T06:37:18.098Z,1003.36
2022-08-12T06:38:19.012Z,1003.32
2022-08-12T06:39:16.027Z,1003.35
2022-08-12T06:40:14.907Z,1003.33
2022-08-12T06:41:12.942Z,1003.27
2022-08-12T06:42:33.042Z,1003.29
2022-08-12T06:43:13.227Z,1003.31
2022-08-12T06:44:13.300Z,1003.32
2022-08-12T06:45:13.715Z,1003.31
2022-08-12T06:46:13.795Z,1003.34
2022-08-12T06:47:14.004Z,1003.32
2022-08-12T06:48:12.977Z,1003.32
2022-08-12T06:49:13.335Z,1003.30
2022-08-12T06:50:16.046Z,1003.30
2022-08-12T06:51:16.150Z,1003.33
2022-08-12T06:52:16.624Z,1003.30
2022-08-12T06:53:17.569Z,1003.29
2022-08-12T06:54:13.580Z,1003.32
2022-08-12T06:55:13.439Z,1003.31
2022-08-12T06:56:13.310Z,1003.31
2022-08-12T06:58:05.262Z,1003.28
2022-08-12T06:58:16.573Z,1003.30
2022-08-12T06:59:15.228Z,1003.28
2022-08-12T07:00:16.079Z,1003.30
2022-08-12T07:01:15.605Z,1003.29
2022-08-12T07:02:13.778Z,1003.30
2022-08-12T07:03:16.341Z,1003.29
2022-08-12T07:04:35.922Z,1003.31
2022-08-12T07:05:19.936Z,1003.31
2022-08-12T07:06:12.939Z,1003.33
2022-08-12T07:07:16.733Z,1003.33
2022-08-12T07:08:15.840Z,1003.30
2022-08-12T07:10:00.108Z,1003.32
2022-08-12T07:10:18.442Z,1003.30
2022-08-12T07:11:13.325Z,1003.29
2022-08-12T07:12:13.485Z,1003.31
2022-08-12T07:13:13.362Z,1003.34
2022-08-12T07:14:13.558Z,1003.34
2022-08-12T07:15:17.881Z,1003.35
2022-08-12T07:16:13.265Z,1003.35
2022-08-12T07:17:14.778Z,1003.39
2022-08-12T07:18:15.443Z,1003.36
2022-08-12T07:19:13.853Z,1003.35
2022-08-12T07:20:49.920Z,1003.37
2022-08-12T07:21:16.521Z,1003.38
2022-08-12T07:22:18.028Z,1003.38
2022-08-12T07:23:15.125Z,1003.38
2022-08-12T07:24:16.355Z,1003.39
2022-08-12T07:25:13.373Z,1003.40
2022-08-12T07:26:15.066Z,1003.39
2022-08-12T07:27:15.819Z,1003.41
2022-08-12T07:28:17.042Z,1003.40
2022-08-12T07:29:13.440Z,1003.43
2022-08-12T07:30:17.385Z,1003.42
2022-08-12T07:31:17.339Z,1003.42
2022-08-12T07:32:15.072Z,1003.46
2022-08-12T07:33:16.192Z,1003.47
2022-08-12T07:34:16.182Z,1003.46
2022-08-12T07:35:16.147Z,1003.46
2022-08-12T07:36:17.371Z,1003.47
2022-08-12T07:37:15.644Z,1003.51
2022-08-12T07:38:16.739Z,1003.52
2022-08-12T07:39:14.910Z,1003.49
2022-08-12T07:40:13.586Z,1003.48
2022-08-12T07:41:14.487Z,1003.48
2022-08-12T07:42:15.345Z,1003.47
2022-08-12T07:43:14.834Z,1003.49
2022-08-12T07:44:16.733Z,1003.50
2022-08-12T07:45:18.259Z,1003.51
2022-08-12T07:46:14.770Z,1003.50
2022-08-12T07:47:17.014Z,1003.50
2022-08-12T07:48:12.931Z,1003.53
2022-08-12T07:49:18.455Z,1003.52
2022-08-12T07:50:21.446Z,1003.51
2022-08-12T07:51:24.815Z,1003.54
2022-08-12T07:52:16.135Z,1003.51
2022-08-12T07:53:19.256Z,1003.54
2022-08-12T07:54:18.821Z,1003.54
2022-08-12T07:55:15.127Z,1003.57
2022-08-12T07:56:17.425Z,1003.57
2022-08-12T07:57:16.757Z,1003.59
2022-08-12T07:58:15.059Z,1003.57
2022-08-12T07:59:18.574Z,1003.56
2022-08-12T08:00:19.782Z,1003.56
2022-08-12T08:01:15.821Z,1003.57
2022-08-12T08:02:16.433Z,1003.57
2022-08-12T08:03:18.843Z,1003.57
2022-08-12T08:04:19.391Z,1003.55
2022-08-12T08:05:13.732Z,1003.57
2022-08-12T08:06:18.798Z,1003.57
2022-08-12T08:07:19.526Z,1003.58
2022-08-12T08:08:17.605Z,1003.57
2022-08-12T08:09:17.794Z,1003.58
2022-08-12T08:10:15.141Z,1003.56
2022-08-12T08:11:15.479Z,1003.57
2022-08-12T08:12:18.914Z,1003.60
2022-08-12T08:13:17.550Z,1003.61
2022-08-12T08:14:16.570Z,1003.58
2022-08-12T08:15:17.810Z,1003.60
2022-08-12T08:16:19.377Z,1003.61
2022-08-12T08:17:17.544Z,1003.59
2022-08-12T08:18:25.883Z,1003.57
2022-08-12T08:19:17.127Z,1003.56
2022-08-12T08:20:13.123Z,1003.57
2022-08-12T08:21:15.625Z,1003.57
2022-08-12T08:22:17.907Z,1003.61
2022-08-12T08:23:17.443Z,1003.59
2022-08-12T08:24:17.508Z,1003.58
2022-08-12T08:25:36.221Z,1003.61
2022-08-12T08:26:18.188Z,1003.59
2022-08-12T08:27:13.073Z,1003.59
2022-08-12T08:28:16.936Z,1003.64
2022-08-12T08:29:18.021Z,1003.62
2022-08-12T08:30:17.732Z,1003.64
2022-08-12T08:31:17.189Z,1003.63
2022-08-12T08:32:17.678Z,1003.64
2022-08-12T08:34:01.564Z,1003.65
2022-08-12T08:34:27.755Z,1003.62
2022-08-12T08:35:18.889Z,1003.64
2022-08-12T08:36:23.510Z,1003.63
2022-08-12T08:37:15.583Z,1003.63
2022-08-12T08:38:13.385Z,1003.62
2022-08-12T08:39:18.152Z,1003.60
2022-08-12T08:40:17.821Z,1003.60
2022-08-12T08:42:14.227Z,1003.59
2022-08-12T08:42:20.389Z,1003.60
2022-08-12T08:43:18.525Z,1003.63
2022-08-12T08:44:18.084Z,1003.61
2022-08-12T08:45:17.944Z,1003.63
2022-08-12T08:46:16.242Z,1003.59
2022-08-12T08:47:16.214Z,1003.60
2022-08-12T08:48:19.036Z,1003.59
2022-08-12T08:49:16.806Z,1003.54
2022-08-12T08:50:18.082Z,1003.52
2022-08-12T08:51:18.721Z,1003.53
2022-08-12T08:52:39.289Z,1003.54
2022-08-12T08:53:19.783Z,1003.54
2022-08-12T08:54:16.822Z,1003.54
2022-08-12T08:55:24.093Z,1003.52
2022-08-12T08:56:18.680Z,1003.55
2022-08-12T08:57:20.822Z,1003.54
2022-08-12T08:58:16.463Z,1003.55
2022-08-12T08:59:17.837Z,1003.58
2022-08-12T09:00:18.156Z,1003.52
2022-08-12T09:01:18.516Z,1003.53
2022-08-12T09:02:40.350Z,1003.54
2022-08-12T09:05:08.903Z,1003.53
2022-08-12T09:05:09.309Z,1003.54
2022-08-12T09:05:24.893Z,1003.49
2022-08-12T09:06:17.167Z,1003.51
2022-08-12T09:07:17.814Z,1003.49
2022-08-12T09:08:22.371Z,1003.49
2022-08-12T09:09:20.058Z,1003.57
2022-08-12T09:10:32.535Z,1003.56
2022-08-12T09:12:07.496Z,1003.60
2022-08-12T09:13:23.408Z,1003.57
2022-08-12T09:14:18.746Z,1003.60
2022-08-12T09:16:20.355Z,1003.55
2022-08-12T09:17:21.418Z,1003.57
2022-08-12T09:18:26.478Z,1003.58
2022-08-12T09:19:27.179Z,1003.56
2022-08-12T09:20:16.480Z,1003.51
2022-08-12T09:21:17.508Z,1003.53
2022-08-12T09:22:20.941Z,1003.50
2022-08-12T09:23:58.389Z,1003.49
2022-08-12T09:24:17.134Z,1003.49
2022-08-12T09:25:25.841Z,1003.52
2022-08-12T09:26:13.184Z,1003.46
2022-08-12T09:27:13.264Z,1003.52
2022-08-12T09:28:13.551Z,1003.52
2022-08-12T09:29:12.985Z,1003.48
2022-08-12T09:30:15.058Z,1003.51
2022-08-12T09:32:04.338Z,1003.47
2022-08-12T09:32:29.425Z,1003.52
2022-08-12T09:33:19.390Z,1003.52
2022-08-12T09:34:25.445Z,1003.56
2022-08-12T09:35:22.113Z,1003.50
2022-08-12T09:36:15.017Z,1003.54
2022-08-12T09:37:19.628Z,1003.49
2022-08-12T09:38:27.995Z,1003.52
2022-08-12T09:40:05.197Z,1003.44
2022-08-12T09:41:01.819Z,1003.46
2022-08-12T09:42:33.229Z,1003.46
2022-08-12T09:42:34.536Z,1003.49
2022-08-12T09:43:19.065Z,1003.46
2022-08-12T09:44:39.290Z,1003.54
2022-08-12T09:45:23.382Z,1003.44
2022-08-12T09:46:21.974Z,1003.40
2022-08-12T09:47:18.351Z,1003.42
2022-08-12T09:48:19.960Z,1003.40
2022-08-12T09:49:17.408Z,1003.38
2022-08-12T09:50:20.460Z,1003.35
2022-08-12T09:51:22.520Z,1003.34
2022-08-12T09:52:18.657Z,1003.32
2022-08-12T09:53:29.099Z,1003.35
2022-08-12T09:54:34.137Z,1003.34
2022-08-12T09:55:59.689Z,1003.22
2022-08-12T09:56:58.037Z,1003.26
2022-08-12T09:58:45.077Z,1003.28
2022-08-12T09:58:57.193Z,1003.31
2022-08-12T10:00:13.076Z,1003.31
2022-08-12T10:00:19.803Z,1003.24
2022-08-12T10:01:23.052Z,1003.25
2022-08-12T10:02:42.274Z,1003.30
2022-08-12T10:03:32.709Z,1003.31
2022-08-12T10:04:20.489Z,1003.32
2022-08-12T10:05:20.412Z,1003.33
2022-08-12T10:06:32.024Z,1003.26
2022-08-12T10:07:24.732Z,1003.23
2022-08-12T10:08:18.543Z,1003.29
2022-08-12T10:09:16.927Z,1003.22
2022-08-12T10:10:22.783Z,1003.27
2022-08-12T10:12:11.306Z,1003.25
2022-08-12T10:12:32.928Z,1003.25
2022-08-12T10:13:34.937Z,1003.28
2022-08-12T10:14:16.608Z,1003.26
2022-08-12T10:16:01.945Z,1003.27
2022-08-12T10:16:22.617Z,1003.21
2022-08-12T10:17:17.748Z,1003.23
2022-08-12T10:18:16.283Z,1003.22
2022-08-12T10:19:17.076Z,1003.26
2022-08-12T10:20:16.355Z,1003.20
2022-08-12T10:21:15.227Z,1003.25
2022-08-12T10:22:17.294Z,1003.22
2022-08-12T10:23:39.373Z,1003.20
2022-08-12T10:24:19.988Z,1003.18
2022-08-12T10:25:18.319Z,1003.19
2022-08-12T10:26:33.987Z,1003.17
2022-08-12T10:27:18.768Z,1003.14
2022-08-12T10:28:24.876Z,1003.16
2022-08-12T10:30:03.171Z,1003.15
2022-08-12T10:30:42.156Z,1003.12
2022-08-12T10:31:19.811Z,1003.05
2022-08-12T10:32:43.213Z,1003.09
2022-08-12T10:33:30.601Z,1003.10
2022-08-12T10:34:25.921Z,1003.02
2022-08-12T10:35:12.996Z,1003.08
2022-08-12T10:36:18.217Z,1003.11
2022-08-12T10:38:32.040Z,1002.99
2022-08-12T10:38:37.445Z,1003.01
2022-08-12T10:39:44.300Z,1002.97
2022-08-12T10:40:21.172Z,1002.96
2022-08-12T10:41:19.081Z,1002.98
2022-08-12T10:42:13.055Z,1002.96
2022-08-12T10:43:19.393Z,1003.00
2022-08-12T10:44:17.783Z,1003.01
2022-08-12T10:45:17.136Z,1002.94
2022-08-12T10:46:15.448Z,1002.92
2022-08-12T10:47:26.196Z,1002.98
2022-08-12T10:48:21.711Z,1002.95
2022-08-12T10:50:04.662Z,1002.93
2022-08-12T10:50:28.548Z,1002.90
2022-08-12T10:52:02.581Z,1002.87
2022-08-12T10:52:34.161Z,1002.85
2022-08-12T10:53:19.695Z,1002.87
2022-08-12T10:54:14.535Z,1002.83
2022-08-12T10:55:14.955Z,1002.81
2022-08-12T10:56:18.453Z,1002.77
2022-08-12T10:58:14.951Z,1002.71
2022-08-12T10:58:28.007Z,1002.74
2022-08-12T10:59:19.650Z,1002.68
2022-08-12T11:00:35.057Z,1002.71
2022-08-12T11:04:14.279Z,1002.68
2022-08-12T11:04:23.742Z,1002.70
2022-08-12T11:04:24.948Z,1002.66
2022-08-12T11:04:35.725Z,1002.59
2022-08-12T11:07:06.014Z,1002.65
2022-08-12T11:07:08.560Z,1002.60
2022-08-12T11:08:36.034Z,1002.47
2022-08-12T11:08:36.097Z,1002.53
2022-08-12T11:09:17.622Z,1002.52
2022-08-12T11:10:18.961Z,1002.51
2022-08-12T11:11:17.302Z,1002.53
2022-08-12T11:12:55.896Z,1002.59
2022-08-12T11:13:20.712Z,1002.59
2022-08-12T11:14:49.997Z,1002.59
2022-08-12T11:15:21.322Z,1002.54
2022-08-12T11:16:23.199Z,1002.49
2022-08-12T11:17:34.011Z,1002.38
2022-08-12T11:18:19.988Z,1002.45
2022-08-12T11:19:22.470Z,1002.47
2022-08-12T11:20:20.656Z,1002.48
2022-08-12T11:21:19.069Z,1002.48
2022-08-12T11:22:20.615Z,1002.45
2022-08-12T11:23:25.653Z,1002.43
2022-08-12T11:24:31.883Z,1002.37
2022-08-12T11:25:21.093Z,1002.42
2022-08-12T11:26:17.695Z,1002.40
2022-08-12T11:27:21.296Z,1002.37
2022-08-12T11:28:33.979Z,1002.29
2022-08-12T11:29:22.614Z,1002.30
2022-08-12T11:30:31.126Z,1002.31
2022-08-12T11:31:20.643Z,1002.24
2022-08-12T11:32:21.215Z,1002.26
2022-08-12T11:33:24.179Z,1002.27
2022-08-12T11:34:52.451Z,1002.26
2022-08-12T11:35:19.734Z,1002.24
2022-08-12T11:36:22.110Z,1002.32
2022-08-12T11:37:25.459Z,1002.34
2022-08-12T11:38:20.856Z,1002.27
2022-08-12T11:39:23.398Z,1002.36
2022-08-12T11:40:20.153Z,1002.29
2022-08-12T11:41:28.073Z,1002.30
2022-08-12T11:42:19.622Z,1002.26
2022-08-12T11:43:21.934Z,1002.27
2022-08-12T11:44:36.645Z,1002.27
2022-08-12T11:45:20.664Z,1002.29
2022-08-12T11:46:21.549Z,1002.29
2022-08-12T11:47:21.304Z,1002.22
2022-08-12T11:48:20.587Z,1002.25
2022-08-12T11:49:30.853Z,1002.26
2022-08-12T11:50:23.868Z,1002.27
2022-08-12T11:51:19.571Z,1002.14
2022-08-12T11:52:53.961Z,1002.23
2022-08-12T11:53:59.104Z,1002.18
2022-08-12T11:54:18.349Z,1002.13
2022-08-12T11:55:16.336Z,1002.08
2022-08-12T11:56:19.208Z,1002.14
2022-08-12T11:58:07.046Z,1002.12
2022-08-12T11:59:16.205Z,1002.13
2022-08-12T12:02:02.603Z,1002.11
2022-08-12T12:02:21.316Z,1002.07
2022-08-12T12:03:23.000Z,1002.09
2022-08-12T12:04:25.873Z,1002.07
2022-08-12T12:05:19.856Z,1002.08
2022-08-12T12:06:19.153Z,1002.10
2022-08-12T12:07:19.766Z,1002.10
2022-08-12T12:08:37.091Z,1002.03
2022-08-12T12:09:20.858Z,1002.08